Etusivu
METAR-TAF:

METAR-TAF

Lentoasemat :

Shimla, Intia

Leveyspiiri: 31-04-54N, Pituuspiiri: 77-04-05E, korkeus merenpinnasta: 1546 m

Tämänhetkinen sää

Tämä raportti tehtiin 8 tuntia ja 24 minuuttia sitten, kello 06.00 UTC
Tuuli 5 kn lännestä puuskistuen 15 kn:hen
Lämpötila 33°C
Kosteus 26%
Ilmanpaine 1008 hPa
Näkyvyys: 6000 m
Muutamia pilviä 8000 ft:n korkeudessa

METAR: VISM 190600Z 27005G15KT 6000 FEW080 33/11 Q1008

Aika: 19:54 (14:24 UTC)

Sääennuste

Tämä raportti tehtiin 9 tuntia ja 24 minuuttia sitten, kello 05.00 UTC
Ennuste voimassa 19. päivästä klo 06 UTC - 19. päivään klo 15 UTC
Tuuli 8 kn luoteesta
Näkyvyys: 6000 m
Muutamia pilviä 8000 ft:n korkeudessa

TAF: VISM 190500Z 1906/1915 32008KT 6000 FEW080

Säähavainnot ja -ennusteet yli 4000 lentoasemalta (METAR- ja TAF-raportit).

Käytössä olevat sääasemat on merkitty karttaan keltaisilla ja punaisilla pisteillä.

Aseta hiiri pisteen päälle nähdäksesi sääaseman nimen.

Klikkaa sitten nähdäksesi säähavainnot ja -ennusteet.

Kartan vaihtaminen: klikkaa mustalla rastilla varustettuja vihreitä pisteitä, niin voit zoomata sisään; viivalla varustettua vihreää pistettä, niin voit zoomata ulos tai vihreitä nuolia, niin pääset viereisille kartoille.


METAR-TAF: